MTN - Martin State

Pirep is a free, collaborative database of all public and private airports located within the United States. All pilots are welcome to contribute, edit, and improve any airport they have local knowledge about, no registration required.
Uploaded photos will be licensed under a CC BY-SA 4.0 license. Please only upload photos you have the rights to use.
Tags
Public
METAR / TAF
Flying Clubs
Food
Museum
Edit Tags
Camping
Lodging
Car Rental
Bicycles
Swimming
Golfing
Fishing
Hot Springs
Airpark
Upcoming Events
No upcoming events. Is anything happening here soon?
*
*
*

Where exactly on/near the airport is this event taking place?

Is there a webpage with more information for this event?

Who should be contacted for more information?

What is this event all about?

Repeat every
Description
Last updated: 2024-02-27 22:59:44 EST
Transient Parking
Fuel Location
Landing & Tie-down Fees
Crew Car Availability
Flying Clubs
Last updated: 2024-02-27 22:59:44 EST
WiFi Access
Airport Statistics
Location: Baltimore, MD
Elevation: 21ft
Sectional: Washington
Activation date: Apr 1940
Fuel: 100LL, A+ (prices)
Runway 15/33: 6,997ft
Runway H1: 65ft
Access: Open to the public
Current Weather — VFR
  • Weather data is strictly informational and not for flight planning purposes.
  • METAR
    2024-05-24 19:54:00 EDT
    Ceiling Wind Temperature Dewpoint Weather Visbility
    Sky clear 160° @ 4kt 78°F 60°F N/A 10SM
    Raw: KMTN 242354Z 16004KT 10SM CLR 26/16 A2983
  • TAF
    2024-05-24 20:00:00 EDT – 2024-05-24 23:00:00 EDT
    Ceiling Wind Weather Visbility
    Sky clear 130° @ 3kt N/A 6SM
    Clouds: Scattered @ 25,000ft
    Raw: KMTN 242320Z 2500/2524 13003KT P6SM SCT250 FM250300 00000KT P6SM SCT250 FM251500 16003KT P6SM SCT250
  • TAF
    2024-05-24 23:00:00 EDT – 2024-05-25 11:00:00 EDT
    Ceiling Wind Weather Visbility
    Sky clear Calm N/A 6SM
    Clouds: Scattered @ 25,000ft
    Raw: KMTN 242320Z 2500/2524 13003KT P6SM SCT250 FM250300 00000KT P6SM SCT250 FM251500 16003KT P6SM SCT250
  • TAF
    2024-05-25 11:00:00 EDT – 2024-05-25 20:00:00 EDT
    Ceiling Wind Weather Visbility
    Sky clear 160° @ 3kt N/A 6SM
    Clouds: Scattered @ 25,000ft
    Raw: KMTN 242320Z 2500/2524 13003KT P6SM SCT250 FM250300 00000KT P6SM SCT250 FM251500 16003KT P6SM SCT250
Click/tap to add an annotation marker to the map
Airport Webcams
No webcams added yet.
Direct links to live image URLs will be displayed inline on this page. URLs to separate webpages will be linked to.
URL:
Direct links to live image URLs will be displayed inline on this page. URLs to separate webpages will be linked to.
URL:
Remarks
  • Noise abatement procs in efct. when atct clsd no practice lndgs or apchs.
  • Seagulls on & invof arpt.
  • Arpt conds unmon 2300-0600.
  • Mowing ops conducted durg dalgt.
  • Ppr for practice tkofs & lndgs for acft weighing more than 12500 lbs.
Comments
Leave a comment What was your experience like at this airport?